.
WxDataArchive / Data Records for 2010-10-04
2010-10-03 October 2010 2010-10-05

Data Records for Monday, 04 October 2010

Time	Temp	Chill	HIndex	Humid	Dewpt	 Wind 	HiWind	WindDir	Rain 	Barom 
-----	----	-----	------	-----	-----	------	------	-------	-----	----- 
00:00	45.8	45.8	45.8	69	36.2	0	0	---	0.00	30.329 
00:05	45.7	45.7	45.7	69	36.1	0	1	202	0.00	30.329 
00:10	45.5	45.5	45.5	69	35.9	0	0	---	0.00	30.329 
00:15	45.4	45.4	45.4	69	35.8	0	1	202	0.00	30.332 
00:20	45.2	45.2	45.2	70	36.0	0	1	202	0.00	30.332 
00:25	45.1	45.1	45.1	70	35.9	0	1	202	0.00	30.332 
00:30	44.9	44.9	44.9	70	35.7	0	2	202	0.00	30.332 
00:35	44.8	44.8	44.8	70	35.6	0	1	202	0.00	30.332 
00:40	44.6	44.6	44.6	70	35.4	0	1	202	0.00	30.332 
00:45	44.5	44.5	44.5	71	35.7	0	0	---	0.00	30.328 
00:50	44.3	44.3	44.3	71	35.5	0	1	68	0.00	30.328 
00:55	44.3	44.3	44.3	71	35.5	0	1	68	0.00	30.328 
01:00	44.3	44.3	44.3	71	35.5	0	0	---	0.00	30.327 
01:05	44.3	44.3	44.3	71	35.5	0	1	68	0.00	30.327 
01:10	44.2	44.2	44.2	72	35.8	0	0	---	0.00	30.327 
01:15	44.1	44.1	44.1	72	35.7	0	1	68	0.00	30.325 
01:20	43.9	43.9	43.9	72	35.5	0	0	---	0.00	30.325 
01:25	43.8	43.8	43.8	73	35.7	0	1	68	0.00	30.325 
01:30	43.5	43.5	43.5	73	35.4	0	0	---	0.00	30.325 
01:35	43.3	43.3	43.3	73	35.2	0	1	68	0.00	30.325 
01:40	43.3	43.3	43.3	73	35.2	0	1	68	0.00	30.325 
01:45	43.1	43.1	43.1	74	35.4	0	2	68	0.00	30.324 
01:50	42.9	42.9	42.9	74	35.2	0	0	---	0.00	30.324 
01:55	42.8	42.8	42.8	74	35.1	0	1	68	0.00	30.324 
02:00	42.6	42.6	42.6	75	35.2	0	1	68	0.00	30.323 
02:05	42.5	42.5	42.5	75	35.1	0	1	68	0.00	30.323 
02:10	42.3	42.3	42.3	76	35.3	0	1	68	0.00	30.323 
02:15	42.2	42.2	42.2	76	35.2	0	1	68	0.00	30.324 
02:20	42.1	42.1	42.1	77	35.4	0	1	68	0.00	30.324 
02:25	41.9	41.9	41.9	77	35.2	0	0	---	0.00	30.324 
02:30	41.8	41.8	41.8	77	35.1	0	1	68	0.00	30.323 
02:35	41.6	41.6	41.6	77	34.9	0	1	68	0.00	30.323 
02:40	41.6	41.6	41.6	78	35.3	0	0	---	0.00	30.323 
02:45	41.5	41.5	41.5	78	35.2	0	0	---	0.00	30.325 
02:50	41.5	41.5	41.5	79	35.5	0	1	68	0.00	30.325 
02:55	41.5	41.5	41.5	79	35.5	0	0	---	0.00	30.325 
03:00	41.3	41.3	41.3	79	35.3	0	0	---	0.00	30.326 
03:05	41.3	41.3	41.3	80	35.6	0	2	68	0.00	30.326 
03:10	41.2	41.2	41.2	80	35.5	0	0	---	0.00	30.326 
03:15	41.1	41.1	41.1	80	35.4	0	1	68	0.00	30.325 
03:20	41.1	41.1	41.1	80	35.4	0	1	68	0.00	30.325 
03:25	40.9	40.9	40.9	81	35.5	0	1	68	0.00	30.325 
03:30	40.9	40.9	40.9	81	35.5	0	0	---	0.00	30.321 
03:35	40.9	40.9	40.9	81	35.5	0	1	68	0.00	30.321 
03:40	40.9	40.9	40.9	81	35.5	0	1	68	0.00	30.321 
03:45	40.9	40.9	40.9	81	35.5	0	1	68	0.00	30.316 
03:50	40.9	40.9	40.9	81	35.5	0	2	0	0.00	30.316 
03:55	40.8	40.8	40.8	81	35.4	0	1	0	0.00	30.316 
04:00	40.6	40.6	40.6	81	35.2	0	1	0	0.00	30.314 
04:05	40.5	40.5	40.5	82	35.4	0	0	---	0.00	30.314 
04:10	40.3	40.3	40.3	82	35.2	0	1	0	0.00	30.314 
04:15	40.3	40.3	40.3	83	35.6	0	1	0	0.00	30.315 
04:20	40.2	40.2	40.2	83	35.5	0	0	---	0.00	30.315 
04:25	40.2	40.2	40.2	83	35.5	0	1	0	0.00	30.315 
04:30	40.2	40.2	40.2	84	35.8	0	1	0	0.00	30.315 
04:35	40.2	40.2	40.2	84	35.8	0	1	0	0.00	30.315 
04:40	40.2	40.2	40.2	84	35.8	0	1	0	0.00	30.315 
04:45	40.2	40.2	40.2	84	35.8	0	1	0	0.00	30.314 
04:50	40.2	40.2	40.2	84	35.8	0	2	0	0.00	30.314 
04:55	40.3	40.3	40.3	84	35.9	0	1	0	0.00	30.314 
05:00	40.3	40.3	40.3	84	35.9	0	0	---	0.00	30.316 
05:05	40.3	40.3	40.3	84	35.9	0	1	0	0.00	30.316 
05:10	40.3	40.3	40.3	84	35.9	0	0	---	0.00	30.316 
05:15	40.5	40.5	40.5	84	36.1	0	2	0	0.00	30.319 
05:20	40.5	40.5	40.5	84	36.1	0	1	0	0.00	30.319 
05:25	40.5	40.5	40.5	84	36.1	0	1	0	0.00	30.319 
05:30	40.5	40.5	40.5	84	36.1	0	1	0	0.00	30.322 
05:35	40.5	40.5	40.5	84	36.1	0	1	0	0.00	30.322 
05:40	40.3	40.3	40.3	84	35.9	0	1	0	0.00	30.322 
05:45	40.2	40.2	40.2	84	35.8	0	2	45	0.00	30.324 
05:50	40.2	40.2	40.2	84	35.8	0	1	45	0.00	30.324 
05:55	40.2	40.2	40.2	84	35.8	0	3	292	0.00	30.324 
06:00	40.1	40.1	40.1	84	35.7	0	1	292	0.00	30.326 
06:05	40.1	40.1	40.1	85	36.0	0	1	292	0.00	30.326 
06:10	40.1	40.1	40.1	85	36.0	0	1	292	0.00	30.326 
06:15	40.1	40.1	40.1	85	36.0	0	2	292	0.00	30.327 
06:20	40.1	40.1	40.1	85	36.0	0	1	0	0.00	30.327 
06:25	40.2	40.2	40.2	85	36.1	0	2	0	0.00	30.327 
06:30	40.3	40.3	40.3	85	36.2	0	1	0	0.00	30.329 
06:35	40.3	40.3	40.3	85	36.2	0	1	0	0.00	30.329 
06:40	40.3	40.3	40.3	85	36.2	0	1	338	0.00	30.329 
06:45	40.5	40.5	40.5	85	36.4	0	1	338	0.00	30.330 
06:50	40.6	40.6	40.6	85	36.4	0	1	338	0.00	30.330 
06:55	40.8	40.8	40.8	84	36.3	0	1	338	0.00	30.330 
07:00	41.1	41.1	41.1	84	36.6	0	1	338	0.00	30.334 
07:05	41.2	41.2	41.2	84	36.7	0	3	338	0.00	30.334 
07:10	41.2	41.2	41.2	84	36.7	0	1	248	0.00	30.334 
07:15	41.3	41.3	41.3	84	36.8	0	2	248	0.00	30.340 
07:20	41.5	41.5	41.5	83	36.7	0	1	248	0.00	30.340 
07:25	41.6	41.6	41.6	83	36.8	0	1	248	0.00	30.340 
07:30	41.6	41.6	41.6	83	36.8	0	2	248	0.00	30.341 
07:35	41.6	41.6	41.6	83	36.8	0	1	248	0.00	30.341 
07:40	41.6	41.6	41.6	82	36.5	0	1	248	0.00	30.341 
07:45	41.5	41.5	41.5	82	36.4	0	1	248	0.00	30.340 
07:50	41.5	41.5	41.5	82	36.4	0	1	248	0.00	30.340 
07:55	41.3	41.3	41.3	82	36.2	0	2	248	0.00	30.340 
08:00	41.3	41.3	41.3	82	36.2	0	1	248	0.00	30.343 
08:05	41.3	41.3	41.3	82	36.2	0	1	248	0.00	30.343 
08:10	41.2	41.2	41.2	83	36.4	0	1	248	0.00	30.343 
08:15	41.2	41.2	41.2	83	36.4	0	1	248	0.00	30.345 
08:20	41.2	41.2	41.2	83	36.4	0	2	135	0.00	30.345 
08:25	41.3	41.3	41.3	83	36.5	0	1	135	0.00	30.345 
08:30	41.5	41.5	41.5	84	37.0	0	0	---	0.00	30.347 
08:35	41.6	41.6	41.6	83	36.8	0	1	135	0.00	30.347 
08:40	41.9	41.9	41.9	83	37.1	0	2	135	0.00	30.347 
08:45	42.2	42.2	42.2	83	37.4	0	1	135	0.00	30.353 
08:50	42.5	42.5	42.5	82	37.4	0	1	135	0.00	30.353 
08:55	42.8	42.8	42.8	81	37.4	0	4	112	0.00	30.353 
09:00	43.3	43.3	43.3	81	37.9	0	3	112	0.00	30.355 
09:05	43.6	43.6	43.6	80	37.8	0	3	68	0.00	30.355 
09:10	44.1	44.1	44.1	79	38.0	0	4	90	0.00	30.355 
09:15	44.5	44.5	44.5	77	37.7	0	4	270	0.00	30.358 
09:20	44.8	44.8	44.8	76	37.7	0	4	135	0.00	30.358 
09:25	45.2	45.2	45.2	76	38.1	0	3	135	0.00	30.358 
09:30	45.5	45.5	45.5	75	38.0	0	3	112	0.00	30.359 
09:35	46.0	46.0	46.0	74	38.2	0	2	112	0.00	30.359 
09:40	46.2	46.2	46.2	74	38.4	1	3	112	0.00	30.359 
09:45	46.5	46.5	46.5	73	38.3	0	4	270	0.00	30.361 
09:50	47.0	47.0	47.0	71	38.1	1	4	112	0.00	30.361 
09:55	47.4	47.4	47.4	70	38.1	0	2	112	0.00	30.361 
10:00	47.7	47.7	47.7	69	38.0	1	3	112	0.00	30.367 
10:05	48.6	48.6	48.6	68	38.5	1	4	68	0.00	30.367 
10:10	49.5	49.5	49.5	66	38.6	0	4	112	0.00	30.367 
10:15	50.5	50.5	50.5	63	38.4	1	6	112	0.00	30.367 
10:20	51.3	51.3	51.3	59	37.5	2	5	112	0.00	30.367 
10:25	51.9	51.9	51.9	58	37.6	1	5	68	0.00	30.367 
10:30	52.2	52.2	52.2	59	38.3	0	1	180	0.00	30.363 
10:35	52.6	52.6	52.6	58	38.2	1	6	90	0.00	30.363 
10:40	53.1	53.1	53.1	57	38.3	2	6	90	0.00	30.363 
10:45	53.5	53.5	53.5	54	37.3	2	7	90	0.00	30.364 
10:50	53.8	53.8	53.8	54	37.5	2	5	90	0.00	30.364 
10:55	54.1	54.1	54.1	54	37.8	1	4	90	0.00	30.364 
11:00	54.4	54.4	54.4	53	37.6	1	4	90	0.00	30.362 
11:05	54.7	54.7	54.7	52	37.4	1	4	90	0.00	30.362 
11:10	55.3	55.3	55.3	54	38.9	0	1	90	0.00	30.362 
11:15	55.4	55.4	55.4	51	37.6	1	3	68	0.00	30.359 
11:20	55.4	55.4	55.4	50	37.1	2	7	90	0.00	30.359 
11:25	55.7	55.7	55.7	51	37.9	1	4	90	0.00	30.359 
11:30	56.2	56.2	56.2	52	38.8	1	4	112	0.00	30.356 
11:35	56.5	56.5	56.5	50	38.1	1	6	270	0.00	30.356 
11:40	56.5	56.5	56.5	49	37.6	1	3	112	0.00	30.356 
11:45	56.3	56.3	56.3	50	37.9	1	4	90	0.00	30.352 
11:50	56.6	56.6	56.6	52	39.2	1	5	68	0.00	30.352 
11:55	56.7	56.7	56.7	51	38.8	2	7	90	0.00	30.352 
12:00	57.0	57.0	57.0	47	37.0	0	4	90	0.00	30.352 
12:05	57.0	57.0	57.0	50	38.5	1	3	45	0.00	30.352 
12:10	57.0	57.0	57.0	47	37.0	1	5	270	0.00	30.352 
12:15	57.3	57.3	57.3	48	37.8	2	5	90	0.00	30.352 
12:20	57.5	57.5	57.5	48	38.0	1	4	112	0.00	30.352 
12:25	57.5	57.5	57.5	46	36.9	1	4	292	0.00	30.352 
12:30	57.5	57.5	57.5	46	36.9	1	4	292	0.00	30.350 
12:35	57.3	57.3	57.3	46	36.7	1	4	270	0.00	30.350 
12:40	56.9	56.9	56.9	46	36.3	1	4	338	0.00	30.350 
12:45	56.9	56.9	56.9	46	36.3	1	4	315	0.00	30.353 
12:50	57.5	57.5	57.5	48	38.0	2	6	135	0.00	30.353 
12:55	57.6	57.6	57.6	45	36.4	2	6	90	0.00	30.353 
13:00	58.0	58.0	58.0	49	38.9	1	3	112	0.00	30.348 
13:05	58.3	58.3	58.3	47	38.2	1	6	90	0.00	30.348 
13:10	58.1	58.1	58.1	46	37.4	1	5	22	0.00	30.348 
13:15	58.3	58.3	58.3	46	37.6	1	6	112	0.00	30.347 
13:20	58.3	58.3	58.3	45	37.1	1	5	315	0.00	30.347 
13:25	58.3	58.3	58.3	46	37.6	1	7	112	0.00	30.347 
13:30	58.4	58.4	58.4	47	38.2	2	6	135	0.00	30.340 
13:35	58.6	58.6	58.6	43	36.2	1	6	90	0.00	30.340 
13:40	58.6	58.6	58.6	47	38.4	1	5	68	0.00	30.340 
13:45	58.9	58.9	58.9	48	39.2	1	6	158	0.00	30.336 
13:50	59.2	59.2	59.2	47	39.0	1	6	90	0.00	30.336 
13:55	59.3	59.3	59.3	46	38.5	1	5	112	0.00	30.336 
14:00	59.5	59.5	59.5	46	38.7	0	3	135	0.00	30.332 
14:05	59.2	59.2	59.2	46	38.4	0	2	90	0.00	30.332 
14:10	58.9	58.9	58.9	46	38.2	1	5	292	0.00	30.332 
14:15	58.9	58.9	58.9	47	38.7	1	5	292	0.00	30.325 
14:20	59.2	59.2	59.2	47	39.0	0	2	68	0.00	30.325 
14:25	59.6	59.6	59.6	47	39.3	1	5	90	0.00	30.325 
14:30	59.6	59.6	59.6	45	38.2	1	5	90	0.00	30.321 
14:35	59.8	59.8	59.8	45	38.4	1	4	135	0.00	30.321 
14:40	59.6	59.6	59.6	44	37.7	1	3	135	0.00	30.321 
14:45	59.8	59.8	59.8	48	40.1	1	6	90	0.00	30.315 
14:50	59.8	59.8	59.8	47	39.5	0	2	0	0.00	30.315 
14:55	59.8	59.8	59.8	48	40.1	1	9	338	0.00	30.315 
15:00	60.1	60.1	60.1	45	38.7	0	2	90	0.00	30.309 
15:05	60.1	60.1	60.1	45	38.7	1	4	112	0.00	30.309 
15:10	59.6	59.6	59.6	44	37.7	0	2	0	0.00	30.309 
15:15	59.3	59.3	59.3	46	38.5	0	3	0	0.00	30.307 
15:20	59.6	59.6	59.6	45	38.2	1	9	90	0.00	30.307 
15:25	59.8	59.8	59.8	45	38.4	1	4	90	0.00	30.307 
15:30	59.9	59.9	59.9	44	37.9	2	5	112	0.00	30.304 
15:35	59.9	59.9	59.9	47	39.6	1	3	68	0.00	30.304 
15:40	59.8	59.8	59.8	44	37.8	1	4	270	0.00	30.304 
15:45	59.9	59.9	59.9	45	38.5	0	2	270	0.00	30.303 
15:50	60.5	60.5	60.5	45	39.1	1	5	45	0.00	30.303 
15:55	60.7	60.7	60.7	43	38.1	1	3	112	0.00	30.303 
16:00	60.4	60.4	60.4	44	38.4	1	4	112	0.00	30.302 
16:05	60.4	60.4	60.4	44	38.4	1	4	112	0.00	30.302 
16:10	60.4	60.4	60.4	44	38.4	1	4	112	0.00	30.302 
16:15	60.2	60.2	60.2	46	39.3	0	1	292	0.00	30.301 
16:20	60.1	60.1	60.1	44	38.1	0	4	112	0.00	30.301 
16:25	59.8	59.8	59.8	45	38.4	0	4	112	0.00	30.301 
16:30	59.2	59.2	59.2	45	37.9	0	3	68	0.00	30.302 
16:35	58.9	58.9	58.9	47	38.7	0	2	68	0.00	30.302 
16:40	58.6	58.6	58.6	48	39.0	0	1	68	0.00	30.302 
16:45	58.3	58.3	58.3	47	38.2	0	5	135	0.00	30.302 
16:50	58.1	58.1	58.1	46	37.4	0	1	135	0.00	30.302 
16:55	58.1	58.1	58.1	48	38.5	0	2	292	0.00	30.302 
17:00	58.1	58.1	58.1	46	37.4	0	2	292	0.00	30.299 
17:05	58.1	58.1	58.1	46	37.4	0	3	292	0.00	30.299 
17:10	58.1	58.1	58.1	48	38.5	0	0	---	0.00	30.299 
17:15	58.4	58.4	58.4	47	38.2	0	2	292	0.00	30.295 
17:20	58.7	58.7	58.7	47	38.5	1	6	135	0.00	30.295 
17:25	58.9	58.9	58.9	46	38.2	0	4	135	0.00	30.295 
17:30	58.9	58.9	58.9	46	38.2	0	2	135	0.00	30.297 
17:35	59.0	59.0	59.0	47	38.8	0	3	90	0.00	30.297 
17:40	59.2	59.2	59.2	45	37.9	0	2	90	0.00	30.297 
17:45	59.2	59.2	59.2	44	37.3	0	4	90	0.00	30.301 
17:50	59.0	59.0	59.0	45	37.7	0	2	90	0.00	30.301 
17:55	58.7	58.7	58.7	44	36.8	0	2	90	0.00	30.301 
18:00	58.6	58.6	58.6	46	37.9	0	1	90	0.00	30.298 
18:05	58.4	58.4	58.4	46	37.7	0	1	90	0.00	30.298 
18:10	58.4	58.4	58.4	45	37.1	0	2	90	0.00	30.298 
18:15	58.3	58.3	58.3	44	36.5	0	2	248	0.00	30.304 
18:20	58.3	58.3	58.3	45	37.1	0	2	248	0.00	30.304 
18:25	58.1	58.1	58.1	46	37.4	0	1	270	0.00	30.304 
18:30	58.0	58.0	58.0	46	37.3	0	1	270	0.00	30.306 
18:35	57.8	57.8	57.8	46	37.2	0	1	270	0.00	30.306 
18:40	57.5	57.5	57.5	47	37.4	0	1	270	0.00	30.306 
18:45	57.3	57.3	57.3	47	37.2	0	0	---	0.00	30.310 
18:50	57.0	57.0	57.0	47	37.0	0	0	---	0.00	30.310 
18:55	56.7	56.7	56.7	48	37.2	0	1	270	0.00	30.310 
19:00	56.5	56.5	56.5	48	37.0	0	1	270	0.00	30.308 
19:05	56.3	56.3	56.3	48	36.9	0	1	270	0.00	30.308 
19:10	56.0	56.0	56.0	49	37.1	0	0	---	0.00	30.308 
19:15	55.6	55.6	55.6	50	37.3	0	0	---	0.00	30.307 
19:20	55.3	55.3	55.3	50	37.0	0	0	---	0.00	30.307 
19:25	54.8	54.8	54.8	52	37.5	0	0	---	0.00	30.307 
19:30	54.2	54.2	54.2	52	37.0	0	0	---	0.00	30.309 
19:35	53.9	53.9	53.9	53	37.2	0	0	---	0.00	30.309 
19:40	53.5	53.5	53.5	54	37.3	0	0	---	0.00	30.309 
19:45	53.2	53.2	53.2	55	37.5	0	0	---	0.00	30.310 
19:50	52.8	52.8	52.8	55	37.1	0	0	---	0.00	30.310 
19:55	52.3	52.3	52.3	56	37.1	0	0	---	0.00	30.310 
20:00	52.0	52.0	52.0	58	37.7	0	0	---	0.00	30.311 
20:05	51.6	51.6	51.6	58	37.3	0	0	---	0.00	30.311 
20:10	51.1	51.1	51.1	59	37.3	0	0	---	0.00	30.311 
20:15	50.7	50.7	50.7	60	37.3	0	0	---	0.00	30.307 
20:20	50.4	50.4	50.4	62	37.9	0	0	---	0.00	30.307 
20:25	49.9	49.9	49.9	62	37.4	0	0	---	0.00	30.307 
20:30	49.5	49.5	49.5	62	37.0	0	0	---	0.00	30.308 
20:35	49.2	49.2	49.2	64	37.5	0	0	---	0.00	30.308 
20:40	48.8	48.8	48.8	65	37.6	0	0	---	0.00	30.308 
20:45	48.5	48.5	48.5	66	37.7	0	0	---	0.00	30.312 
20:50	48.0	48.0	48.0	67	37.6	0	0	---	0.00	30.312 
20:55	47.7	47.7	47.7	68	37.7	0	0	---	0.00	30.312 
21:00	47.3	47.3	47.3	68	37.3	0	0	---	0.00	30.315 
21:05	47.0	47.0	47.0	69	37.4	0	0	---	0.00	30.315 
21:10	46.7	46.7	46.7	70	37.4	0	0	---	0.00	30.315 
21:15	46.5	46.5	46.5	71	37.6	0	0	---	0.00	30.310 
21:20	46.2	46.2	46.2	72	37.7	0	0	---	0.00	30.310 
21:25	46.0	46.0	46.0	72	37.5	0	0	---	0.00	30.310 
21:30	45.8	45.8	45.8	73	37.6	0	0	---	0.00	30.313 
21:35	46.0	46.0	46.0	72	37.5	0	0	---	0.00	30.313 
21:40	46.1	46.1	46.1	71	37.2	0	0	---	0.00	30.313 
21:45	46.2	46.2	46.2	71	37.3	0	0	---	0.00	30.318 
21:50	46.4	46.4	46.4	70	37.2	0	0	---	0.00	30.318 
21:55	46.5	46.5	46.5	69	36.9	0	0	---	0.00	30.318 
22:00	46.8	46.8	46.8	68	36.8	0	0	---	0.00	30.321 
22:05	47.0	47.0	47.0	68	37.0	0	0	---	0.00	30.321 
22:10	47.0	47.0	47.0	68	37.0	0	0	---	0.00	30.321 
22:15	47.0	47.0	47.0	68	37.0	0	0	---	0.00	30.319 
22:20	46.8	46.8	46.8	68	36.8	0	0	---	0.00	30.319 
22:25	46.8	46.8	46.8	68	36.8	0	0	---	0.00	30.319 
22:30	46.7	46.7	46.7	68	36.7	0	0	---	0.00	30.320 
22:35	46.4	46.4	46.4	69	36.8	0	0	---	0.00	30.320 
22:40	46.2	46.2	46.2	69	36.6	0	0	---	0.00	30.320 
22:45	46.2	46.2	46.2	69	36.6	0	0	---	0.00	30.318 
22:50	46.1	46.1	46.1	69	36.5	0	0	---	0.00	30.318 
22:55	46.0	46.0	46.0	69	36.4	0	0	---	0.00	30.318 
23:00	45.8	45.8	45.8	70	36.6	0	0	---	0.00	30.316 
23:05	45.7	45.7	45.7	70	36.5	0	0	---	0.00	30.316 
23:10	45.4	45.4	45.4	71	36.6	0	0	---	0.00	30.316 
23:15	45.2	45.2	45.2	71	36.4	0	0	---	0.00	30.314 
23:20	45.2	45.2	45.2	71	36.4	0	0	---	0.00	30.314 
23:25	45.1	45.1	45.1	72	36.6	0	0	---	0.00	30.314 
23:30	44.9	44.9	44.9	72	36.4	0	0	---	0.00	30.318 
23:35	44.9	44.9	44.9	72	36.4	0	0	---	0.00	30.318 
23:40	44.8	44.8	44.8	73	36.7	0	0	---	0.00	30.318 
23:45	44.6	44.6	44.6	73	36.5	0	0	---	0.00	30.320 
23:50	44.5	44.5	44.5	73	36.4	0	0	---	0.00	30.320 
23:55	44.2	44.2	44.2	74	36.4	0	0	---	0.00	30.320 

CoCoRaHS
IN-AL-39
A2 Web Hosting
Creative Commons License
GoDaddy
search engine by freefind advanced

loaded 2018-11-16 10:36:29 • last modified 2010-11-18 10:43:29
Privacy PolicyDisclaimer
• wx.awcolley.com is powered by PmWiki v.2002016 •
• all content (unless otherwise noted) © 2018 A W Colley